Time;durP1;ratioP1;P1;durP2;ratioP2;P2;SDS_P1;SDS_P2;PMS_P1;PMS_P2;Temp;Humidity;BMP_temperature;BMP_pressure;BME280_temperature;BME280_humidity;BME280_pressure;Samples;Min_cycle;Max_cycle;Signal;HPM_P1;HPM_P2
2021/12/06 00:01:15;;;;;;;31.40;19.65;;;;;;;3.56;100.00;101233.34;5119353;27;20023;-71
2021/12/06 00:03:52;;;;;;;34.33;20.08;;;;;;;3.58;100.00;101237.50;5122512;27;20023;-70
2021/12/06 00:06:20;;;;;;;33.10;20.58;;;;;;;3.56;100.00;101236.91;5120506;27;20496;-70
2021/12/06 00:08:46;;;;;;;39.95;20.92;;;;;;;3.70;100.00;101239.44;5102331;27;20247;-70
2021/12/06 00:11:13;;;;;;;32.58;19.77;;;;;;;3.79;100.00;101240.81;5116844;27;20023;-70
2021/12/06 00:13:44;;;;;;;32.05;18.85;;;;;;;3.99;100.00;101232.41;5120513;27;20497;-70
2021/12/06 00:16:18;;;;;;;34.17;20.02;;;;;;;3.86;100.00;101236.13;5130593;27;20030;-71
2021/12/06 00:18:45;;;;;;;35.35;20.92;;;;;;;3.96;100.00;101244.53;5118349;27;20072;-71
2021/12/06 00:21:11;;;;;;;37.63;20.88;;;;;;;4.02;100.00;101242.81;5119925;27;20059;-71
2021/12/06 00:23:37;;;;;;;37.35;21.40;;;;;;;3.90;100.00;101240.03;5101554;27;20039;-71
2021/12/06 00:26:04;;;;;;;33.08;19.30;;;;;;;4.11;100.00;101244.13;5097848;27;20331;-71
2021/12/06 00:28:29;;;;;;;35.75;21.42;;;;;;;4.07;100.00;101251.09;5103180;27;20101;-72
2021/12/06 00:30:55;;;;;;;37.05;20.90;;;;;;;4.03;100.00;101258.03;5116470;27;20369;-71
2021/12/06 00:33:22;;;;;;;37.70;21.20;;;;;;;3.76;100.00;101250.22;5104660;27;20049;-72
2021/12/06 00:35:47;;;;;;;36.95;21.15;;;;;;;3.91;100.00;101263.38;5097766;27;20037;-71
2021/12/06 00:38:13;;;;;;;39.40;22.45;;;;;;;4.06;100.00;101268.41;5106423;27;20019;-71
2021/12/06 00:40:43;;;;;;;39.38;23.08;;;;;;;4.10;100.00;101268.78;5116211;27;20473;-72
2021/12/06 00:43:09;;;;;;;39.80;23.20;;;;;;;4.12;100.00;101266.69;5083901;27;20043;-70
2021/12/06 00:45:37;;;;;;;39.65;23.20;;;;;;;4.02;100.00;101278.91;5117952;27;20023;-70
2021/12/06 00:48:03;;;;;;;42.35;24.60;;;;;;;3.86;100.00;101272.19;5100860;27;20023;-71
2021/12/06 00:50:32;;;;;;;39.15;22.70;;;;;;;4.04;100.00;101289.53;5120754;27;20026;-71
2021/12/06 00:52:58;;;;;;;41.30;22.80;;;;;;;3.93;100.00;101285.69;5100850;27;20198;-72
2021/12/06 00:55:23;;;;;;;42.42;25.05;;;;;;;3.93;100.00;101284.88;5106046;27;20027;-70
2021/12/06 00:57:52;;;;;;;41.70;23.67;;;;;;;4.16;100.00;101286.88;5114079;27;20024;-71
2021/12/06 01:00:22;;;;;;;49.58;24.65;;;;;;;4.17;100.00;101286.66;5101678;27;20038;-71
2021/12/06 01:02:48;;;;;;;42.60;24.92;;;;;;;4.16;100.00;101295.03;5129445;27;20026;-70
2021/12/06 01:05:13;;;;;;;44.97;25.40;;;;;;;4.13;100.00;101301.75;5143780;27;20042;-70
2021/12/06 01:07:39;;;;;;;43.22;25.67;;;;;;;4.17;100.00;101307.53;5138649;27;20384;-70
2021/12/06 01:10:07;;;;;;;43.83;26.63;;;;;;;3.98;100.00;101312.97;5123626;27;20030;-70
2021/12/06 01:12:33;;;;;;;43.42;26.08;;;;;;;3.98;100.00;101301.28;5136448;27;20023;-71
2021/12/06 01:14:59;;;;;;;43.90;26.02;;;;;;;4.15;100.00;101306.91;5138229;27;20026;-70
2021/12/06 01:17:24;;;;;;;45.53;26.73;;;;;;;4.10;100.00;101317.63;5140853;27;20536;-71
2021/12/06 01:19:50;;;;;;;46.38;26.45;;;;;;;4.18;100.00;101311.91;5120471;27;20026;-71
2021/12/06 01:22:27;;;;;;;44.92;26.02;;;;;;;4.40;100.00;101317.69;5121123;27;20034;-71
2021/12/06 01:25:07;;;;;;;46.38;26.08;;;;;;;4.37;100.00;101308.09;5070318;27;20122;-71
2021/12/06 01:27:48;;;;;;;45.13;25.77;;;;;;;4.27;100.00;101318.69;5114537;27;20023;-71
2021/12/06 01:31:34;;;;;;;41.55;24.30;;;;;;;4.32;100.00;101320.72;5124488;27;20029;-71
2021/12/06 01:41:10;;;;;;;40.80;24.55;;;;;;;4.38;100.00;101327.94;5082149;27;20239;-71
2021/12/06 01:43:36;;;;;;;40.50;25.60;;;;;;;4.53;100.00;101327.53;5124962;27;20038;-70
2021/12/06 01:46:02;;;;;;;46.72;26.60;;;;;;;4.58;100.00;101328.50;5118793;27;20498;-70
2021/12/06 01:48:28;;;;;;;40.00;26.15;;;;;;;4.31;100.00;101333.47;5143446;27;20101;-70
2021/12/06 01:50:54;;;;;;;49.08;25.83;;;;;;;4.28;100.00;101331.22;5121837;27;20091;-70
2021/12/06 01:53:19;;;;;;;40.58;24.80;;;;;;;4.18;100.00;101323.59;5122569;27;20118;-70
2021/12/06 01:55:46;;;;;;;42.40;25.27;;;;;;;4.53;100.00;101325.66;5134454;27;20925;-70
2021/12/06 01:58:11;;;;;;;40.53;25.50;;;;;;;4.70;100.00;101327.72;5101386;27;20114;-70
2021/12/06 02:00:48;;;;;;;40.65;24.95;;;;;;;4.67;100.00;101322.75;5120489;27;20513;-70
2021/12/06 02:03:15;;;;;;;44.00;25.33;;;;;;;4.73;100.00;101322.63;5120461;27;20031;-70
2021/12/06 02:05:45;;;;;;;46.25;26.33;;;;;;;4.71;100.00;101318.50;5101512;27;20129;-71
2021/12/06 02:08:11;;;;;;;39.70;24.40;;;;;;;4.52;100.00;101323.16;5104447;27;20469;-70
2021/12/06 02:10:38;;;;;;;41.50;25.90;;;;;;;4.34;100.00;101321.31;5118296;27;20321;-70
2021/12/06 02:13:05;;;;;;;40.00;24.80;;;;;;;4.39;100.00;101321.44;5118575;27;20193;-71
2021/12/06 02:15:52;;;;;;;41.45;23.58;;;;;;;4.34;100.00;101318.59;5101098;27;20028;-71
2021/12/06 02:21:30;;;;;;;40.10;23.95;;;;;;;4.29;100.00;101318.44;5117543;27;20055;-71
2021/12/06 02:23:58;;;;;;;42.08;25.17;;;;;;;4.43;100.00;101311.81;5102011;27;20389;-71
2021/12/06 02:26:25;;;;;;;41.28;23.83;;;;;;;4.39;100.00;101306.00;5116115;27;20524;-70
2021/12/06 02:28:51;;;;;;;33.03;21.90;;;;;;;4.52;100.00;101307.69;5103650;27;20519;-70
2021/12/06 02:31:18;;;;;;;40.67;24.73;;;;;;;4.58;100.00;101311.38;5098328;27;20027;-70
2021/12/06 02:33:48;;;;;;;37.35;23.45;;;;;;;4.57;100.00;101310.53;5122078;27;20138;-71
2021/12/06 02:36:16;;;;;;;39.28;23.27;;;;;;;4.66;100.00;101316.50;5102289;27;21032;-70
2021/12/06 02:38:41;;;;;;;39.35;23.92;;;;;;;4.67;100.00;101314.59;5128671;27;20058;-70
2021/12/06 02:41:08;;;;;;;42.85;24.40;;;;;;;4.71;100.00;101313.91;5100682;27;20281;-69
2021/12/06 02:43:36;;;;;;;42.08;24.25;;;;;;;4.63;100.00;101311.50;5108006;27;20465;-70
2021/12/06 02:46:02;;;;;;;40.75;23.52;;;;;;;4.63;100.00;101308.81;5112410;27;20044;-71
2021/12/06 02:48:28;;;;;;;43.20;24.98;;;;;;;4.59;100.00;101313.03;5127905;27;20250;-70
2021/12/06 02:50:58;;;;;;;38.25;24.08;;;;;;;4.25;100.00;101315.38;5123320;27;20456;-70
2021/12/06 02:53:25;;;;;;;44.78;24.00;;;;;;;4.24;100.00;101316.41;5127320;27;20033;-70
2021/12/06 02:55:54;;;;;;;47.47;25.52;;;;;;;4.28;100.00;101311.34;5120521;27;20162;-71
2021/12/06 02:58:59;;;;;;;49.72;26.45;;;;;;;4.20;100.00;101310.63;5128440;27;20523;-71
2021/12/06 03:01:26;;;;;;;44.45;26.08;;;;;;;4.33;100.00;101306.06;5133841;27;20042;-71
2021/12/06 03:03:52;;;;;;;47.88;26.90;;;;;;;4.29;100.00;101308.41;5104691;27;20493;-71
2021/12/06 03:06:19;;;;;;;47.97;26.80;;;;;;;4.38;100.00;101315.19;5122317;27;20063;-72
2021/12/06 03:08:54;;;;;;;49.85;26.25;;;;;;;4.46;100.00;101318.63;5106222;27;20038;-70
2021/12/06 03:11:27;;;;;;;41.55;25.65;;;;;;;4.38;100.00;101322.53;5099968;27;20097;-70
2021/12/06 03:13:53;;;;;;;41.38;22.92;;;;;;;4.42;100.00;101326.41;5122975;27;20018;-70
2021/12/06 03:16:19;;;;;;;43.28;24.60;;;;;;;4.40;100.00;101320.41;5112042;27;20041;-71
2021/12/06 03:18:46;;;;;;;45.60;25.65;;;;;;;4.46;100.00;101321.34;5128111;27;20038;-71
2021/12/06 03:21:14;;;;;;;42.08;25.02;;;;;;;4.47;100.00;101321.13;5101266;27;20050;-70
2021/12/06 03:23:40;;;;;;;42.58;25.73;;;;;;;4.50;100.00;101317.97;5106809;27;20137;-71
2021/12/06 03:26:06;;;;;;;48.22;26.50;;;;;;;4.49;100.00;101331.75;5096470;27;20031;-70
2021/12/06 03:28:39;;;;;;;43.20;26.50;;;;;;;4.52;100.00;101325.88;5105490;27;20380;-71
2021/12/06 03:31:06;;;;;;;46.80;26.52;;;;;;;4.74;100.00;101320.78;5117506;27;20023;-71
2021/12/06 03:33:34;;;;;;;41.15;24.10;;;;;;;4.76;100.00;101324.06;5123846;27;20031;-70
2021/12/06 03:36:00;;;;;;;39.03;24.80;;;;;;;4.79;100.00;101329.88;5120160;27;20079;-71
2021/12/06 03:38:25;;;;;;;41.40;25.13;;;;;;;4.56;100.00;101321.66;5124695;27;20477;-71
2021/12/06 03:40:51;;;;;;;43.55;26.40;;;;;;;4.53;100.00;101327.53;5080762;27;20151;-70
2021/12/06 03:43:17;;;;;;;47.03;25.80;;;;;;;4.67;100.00;101326.28;5088170;27;20443;-70
2021/12/06 03:45:42;;;;;;;39.50;23.58;;;;;;;4.68;100.00;101321.69;5117792;27;20538;-71
2021/12/06 03:48:08;;;;;;;40.40;24.08;;;;;;;4.63;100.00;101333.25;5103451;27;20034;-71
2021/12/06 03:50:33;;;;;;;36.78;22.23;;;;;;;4.56;100.00;101340.66;5120449;27;20065;-71
2021/12/06 03:52:59;;;;;;;45.90;26.08;;;;;;;4.44;100.00;101353.34;5118451;27;20489;-71
2021/12/06 03:55:24;;;;;;;45.78;25.75;;;;;;;4.44;100.00;101347.91;5104964;27;20462;-71
2021/12/06 03:57:51;;;;;;;45.40;26.95;;;;;;;4.54;100.00;101348.19;5117987;27;20027;-71
2021/12/06 04:00:17;;;;;;;42.03;24.38;;;;;;;4.60;100.00;101352.72;5065291;27;20137;-70
2021/12/06 04:02:42;;;;;;;44.88;24.63;;;;;;;4.67;100.00;101350.72;5123918;27;20073;-71
2021/12/06 04:05:08;;;;;;;43.65;25.83;;;;;;;4.62;100.00;101345.16;5138064;27;20477;-72
2021/12/06 04:07:34;;;;;;;42.05;24.40;;;;;;;4.54;100.00;101342.75;5122378;27;20018;-71
2021/12/06 04:09:59;;;;;;;44.20;25.75;;;;;;;4.51;100.00;101337.78;5140404;27;20087;-70
2021/12/06 04:12:25;;;;;;;42.75;23.27;;;;;;;4.44;100.00;101337.88;5137983;27;20019;-70
2021/12/06 04:14:51;;;;;;;43.42;24.08;;;;;;;4.35;100.00;101348.22;5122813;27;20365;-71
2021/12/06 04:17:17;;;;;;;49.38;25.13;;;;;;;4.21;100.00;101352.16;5090109;27;20042;-71
2021/12/06 04:19:43;;;;;;;42.05;25.67;;;;;;;4.12;100.00;101350.81;5143066;27;20477;-71
2021/12/06 04:22:11;;;;;;;41.70;24.88;;;;;;;4.20;100.00;101361.38;5121515;27;20026;-70
2021/12/06 04:24:37;;;;;;;44.03;23.88;;;;;;;4.24;100.00;101360.66;5143221;27;20107;-71
2021/12/06 04:27:13;;;;;;;42.40;24.85;;;;;;;4.29;100.00;101364.59;5098368;27;20557;-70
2021/12/06 04:29:42;;;;;;;40.67;23.58;;;;;;;4.27;100.00;101364.81;5125022;27;20023;-71
2021/12/06 04:32:08;;;;;;;48.08;24.90;;;;;;;4.16;100.00;101360.97;5101211;27;20034;-71
2021/12/06 04:34:34;;;;;;;44.42;24.50;;;;;;;4.01;100.00;101357.81;5108996;27;20030;-71
2021/12/06 04:36:59;;;;;;;44.88;25.80;;;;;;;4.25;100.00;101366.94;5120491;27;20037;-70
2021/12/06 04:39:25;;;;;;;43.28;24.48;;;;;;;4.33;100.00;101361.22;5107534;27;20037;-70
2021/12/06 04:41:51;;;;;;;39.20;23.10;;;;;;;4.25;100.00;101353.38;5116680;27;20390;-72
2021/12/06 04:44:16;;;;;;;41.55;24.92;;;;;;;4.24;100.00;101344.38;5120962;27;20088;-70
2021/12/06 04:46:42;;;;;;;47.83;26.65;;;;;;;4.29;100.00;101343.69;5119363;27;20055;-71
2021/12/06 04:49:08;;;;;;;43.30;25.50;;;;;;;4.35;100.00;101342.78;5120739;27;20320;-71
2021/12/06 04:51:36;;;;;;;45.60;25.85;;;;;;;4.36;100.00;101338.19;5100740;27;20059;-71
2021/12/06 04:54:02;;;;;;;53.35;27.20;;;;;;;4.28;100.00;101338.50;5119738;27;20075;-71
2021/12/06 04:56:32;;;;;;;58.92;28.27;;;;;;;4.28;100.00;101336.63;5116849;27;20031;-71
2021/12/06 04:59:14;;;;;;;56.67;29.02;;;;;;;4.17;100.00;101345.53;5121402;27;20015;-70
2021/12/06 05:01:41;;;;;;;49.50;26.98;;;;;;;4.36;100.00;101338.19;5116294;27;20023;-70
2021/12/06 05:04:13;;;;;;;54.53;27.85;;;;;;;4.24;100.00;101338.13;5101520;27;20625;-70
2021/12/06 05:06:43;;;;;;;54.85;27.70;;;;;;;4.35;100.00;101344.69;5118158;27;20094;-70
2021/12/06 05:09:17;;;;;;;54.08;28.00;;;;;;;4.34;100.00;101346.56;5119316;27;20164;-71
2021/12/06 05:11:44;;;;;;;52.03;28.30;;;;;;;4.43;100.00;101349.81;5115142;27;20023;-71
2021/12/06 05:14:10;;;;;;;56.83;29.73;;;;;;;4.32;100.00;101348.69;5120512;27;20164;-71
2021/12/06 05:16:36;;;;;;;51.67;28.85;;;;;;;4.23;100.00;101342.75;5096604;27;20031;-71
2021/12/06 05:19:04;;;;;;;54.13;29.88;;;;;;;4.26;100.00;101343.34;5140460;27;20114;-70
2021/12/06 05:21:30;;;;;;;51.42;27.67;;;;;;;4.08;100.00;101345.00;5138608;27;20564;-71
2021/12/06 05:23:58;;;;;;;49.78;27.88;;;;;;;4.11;100.00;101343.72;5123841;27;20147;-71
2021/12/06 05:26:24;;;;;;;49.65;28.92;;;;;;;4.04;100.00;101350.03;5098190;27;20110;-71
2021/12/06 05:28:52;;;;;;;47.47;26.85;;;;;;;4.02;100.00;101359.50;5123307;27;20117;-70
2021/12/06 05:31:20;;;;;;;53.28;28.27;;;;;;;3.91;100.00;101365.66;5097826;27;20027;-70
2021/12/06 05:33:52;;;;;;;55.92;29.77;;;;;;;3.82;100.00;101365.94;5123166;27;20030;-70
2021/12/06 05:36:17;;;;;;;44.00;26.97;;;;;;;3.75;100.00;101362.47;5117062;27;20073;-70
2021/12/06 05:38:43;;;;;;;45.80;26.65;;;;;;;3.72;100.00;101368.31;5142167;27;20298;-71
2021/12/06 05:41:08;;;;;;;43.58;25.83;;;;;;;3.70;100.00;101359.59;5110772;27;20027;-71
2021/12/06 05:43:34;;;;;;;46.17;26.98;;;;;;;3.63;100.00;101358.84;5125227;27;20595;-70
2021/12/06 05:46:01;;;;;;;43.67;24.63;;;;;;;3.60;100.00;101362.00;5136655;27;20907;-71
2021/12/06 05:48:27;;;;;;;48.22;26.33;;;;;;;3.46;100.00;101353.13;5122653;27;20537;-69
2021/12/06 05:50:53;;;;;;;44.92;25.27;;;;;;;3.46;100.00;101353.13;5125620;27;20019;-70
2021/12/06 05:53:19;;;;;;;44.75;25.88;;;;;;;3.41;100.00;101356.53;5139227;27;20044;-70
2021/12/06 05:55:46;;;;;;;43.03;25.15;;;;;;;3.36;100.00;101355.53;5100252;27;20043;-70
2021/12/06 05:58:14;;;;;;;40.63;24.80;;;;;;;3.29;100.00;101353.69;5089193;27;20107;-70
2021/12/06 06:00:42;;;;;;;41.40;24.05;;;;;;;3.19;100.00;101360.66;5137456;27;20034;-69
2021/12/06 06:03:09;;;;;;;42.25;25.33;;;;;;;3.10;100.00;101363.66;5122423;27;20018;-69
2021/12/06 06:05:35;;;;;;;48.80;27.27;;;;;;;3.09;100.00;101363.88;5105931;27;20030;-69
2021/12/06 06:08:02;;;;;;;43.88;24.52;;;;;;;3.12;100.00;101360.72;5143210;27;20042;-70
2021/12/06 06:10:47;;;;;;;46.25;26.83;;;;;;;3.08;100.00;101367.63;5119516;27;20266;-70
2021/12/06 06:13:13;;;;;;;46.85;27.27;;;;;;;3.08;100.00;101368.47;5122684;27;20031;-70
2021/12/06 06:15:41;;;;;;;42.88;24.83;;;;;;;3.11;100.00;101378.84;5123174;27;20022;-69
2021/12/06 06:18:07;;;;;;;48.58;24.60;;;;;;;3.09;100.00;101375.53;5094074;27;20030;-70
2021/12/06 06:20:51;;;;;;;37.83;23.10;;;;;;;3.10;100.00;101369.06;5124503;27;20101;-69
2021/12/06 06:23:17;;;;;;;41.75;24.17;;;;;;;3.15;100.00;101372.97;5123096;27;20022;-70
2021/12/06 06:25:43;;;;;;;51.60;27.02;;;;;;;3.12;100.00;101364.25;5105971;27;20515;-69
2021/12/06 06:28:09;;;;;;;55.08;28.67;;;;;;;3.19;100.00;101368.78;5106762;27;20027;-69
2021/12/06 06:30:35;;;;;;;55.75;28.88;;;;;;;3.37;100.00;101376.97;5140004;27;20026;-69
2021/12/06 06:33:02;;;;;;;66.07;31.80;;;;;;;3.46;100.00;101380.25;5125306;27;20099;-69
2021/12/06 06:35:31;;;;;;;75.70;33.13;;;;;;;3.47;100.00;101380.03;5122008;27;20133;-70
2021/12/06 06:37:57;;;;;;;78.05;35.33;;;;;;;3.58;100.00;101386.63;5126872;27;20037;-70
2021/12/06 06:40:22;;;;;;;85.07;35.55;;;;;;;3.69;100.00;101382.34;5112146;27;20031;-71
2021/12/06 06:42:48;;;;;;;77.22;32.53;;;;;;;3.65;100.00;101389.25;5100514;27;20055;-72
2021/12/06 06:45:17;;;;;;;148.18;33.53;;;;;;;3.58;100.00;101388.50;5117207;27;20039;-70
2021/12/06 06:47:43;;;;;;;122.93;34.10;;;;;;;3.64;100.00;101383.03;5117040;27;20301;-71
2021/12/06 06:50:09;;;;;;;215.27;34.65;;;;;;;3.27;100.00;101391.03;5123620;27;20031;-70
2021/12/06 06:52:35;;;;;;;419.15;41.70;;;;;;;3.31;100.00;101389.56;5085087;27;20487;-71
2021/12/06 06:55:03;;;;;;;297.50;38.15;;;;;;;3.35;100.00;101378.28;5104416;27;20035;-71
2021/12/06 06:57:29;;;;;;;225.25;34.08;;;;;;;3.42;100.00;101379.03;5097820;27;20038;-69
2021/12/06 06:59:54;;;;;;;251.95;39.15;;;;;;;3.41;100.00;101377.38;5121074;27;20031;-69
2021/12/06 07:02:20;;;;;;;179.63;31.30;;;;;;;3.47;100.00;101379.19;5119678;27;20031;-70
2021/12/06 07:04:45;;;;;;;183.73;33.88;;;;;;;3.47;100.00;101373.78;5085655;27;20042;-70
2021/12/06 07:07:11;;;;;;;231.27;32.72;;;;;;;3.18;100.00;101367.97;5118986;27;20445;-70
2021/12/06 07:09:38;;;;;;;228.88;33.63;;;;;;;3.26;100.00;101361.44;5087090;27;20027;-70
2021/12/06 07:12:11;;;;;;;260.10;33.17;;;;;;;3.27;100.00;101361.22;5101528;27;20031;-70
2021/12/06 07:14:38;;;;;;;359.20;38.00;;;;;;;3.10;100.00;101360.13;5089608;27;20031;-70
2021/12/06 07:17:03;;;;;;;242.20;34.85;;;;;;;3.23;100.00;101360.00;5066471;27;20408;-70
2021/12/06 07:19:29;;;;;;;420.42;45.78;;;;;;;3.23;100.00;101359.16;5105105;27;20043;-69
2021/12/06 07:21:54;;;;;;;155.55;31.27;;;;;;;3.45;100.00;101354.19;5085630;27;20031;-70
2021/12/06 07:24:20;;;;;;;165.68;32.40;;;;;;;3.31;100.00;101350.75;5104521;27;20393;-70
2021/12/06 07:26:46;;;;;;;95.80;29.25;;;;;;;3.39;100.00;101344.25;5097670;27;20035;-71
2021/12/06 07:29:12;;;;;;;217.88;35.17;;;;;;;3.33;100.00;101348.69;5122301;27;20140;-70
2021/12/06 07:31:37;;;;;;;120.82;29.33;;;;;;;3.20;100.00;101346.06;5082066;27;20034;-70
2021/12/06 07:34:03;;;;;;;171.82;29.73;;;;;;;3.23;100.00;101354.59;5107056;27;20035;-69
2021/12/06 07:36:30;;;;;;;278.55;35.97;;;;;;;3.22;100.00;101352.91;5084761;27;20043;-70
2021/12/06 07:38:56;;;;;;;217.07;33.92;;;;;;;3.26;100.00;101359.56;5087399;27;20031;-70
2021/12/06 07:41:23;;;;;;;203.07;33.03;;;;;;;3.45;100.00;101354.19;5078254;27;20039;-70
2021/12/06 07:43:49;;;;;;;212.48;34.05;;;;;;;3.49;100.00;101352.69;5126353;27;20031;-70
2021/12/06 07:46:16;;;;;;;148.95;30.95;;;;;;;3.54;100.00;101349.31;5097495;27;20203;-69
2021/12/06 07:48:41;;;;;;;141.70;30.85;;;;;;;3.52;100.00;101354.13;5105493;27;20370;-71
2021/12/06 07:51:07;;;;;;;199.93;33.85;;;;;;;3.50;100.00;101354.34;5096353;27;20042;-72
2021/12/06 07:53:38;;;;;;;151.80;34.28;;;;;;;3.61;100.00;101345.50;5110286;27;20038;-69
2021/12/06 07:56:03;;;;;;;168.15;34.65;;;;;;;3.60;100.00;101353.84;5139506;27;20278;-69
2021/12/06 07:58:29;;;;;;;116.90;33.97;;;;;;;3.71;100.00;101357.72;5143553;27;20030;-70
2021/12/06 08:00:55;;;;;;;197.15;41.20;;;;;;;3.55;100.00;101348.28;5101685;27;20030;-68
2021/12/06 08:03:23;;;;;;;117.35;37.33;;;;;;;3.79;100.00;101362.88;5110673;27;20063;-70
2021/12/06 08:05:51;;;;;;;95.65;34.97;;;;;;;3.76;100.00;101366.03;5122002;27;20056;-70
2021/12/06 08:08:25;;;;;;;200.20;38.97;;;;;;;3.58;100.00;101375.75;5124025;27;20107;-70
2021/12/06 08:10:54;;;;;;;91.53;33.88;;;;;;;3.75;100.00;101373.31;5118196;27;20520;-69
2021/12/06 08:13:27;;;;;;;115.60;34.55;;;;;;;3.71;100.00;101369.41;5143483;27;20031;-69
2021/12/06 08:15:54;;;;;;;97.38;35.28;;;;;;;3.74;100.00;101389.78;5138601;27;20035;-70
2021/12/06 08:18:20;;;;;;;142.43;39.72;;;;;;;3.49;100.00;101387.94;5142599;27;20382;-70
2021/12/06 08:20:46;;;;;;;111.90;38.17;;;;;;;3.72;100.00;101390.03;5120495;27;20050;-70
2021/12/06 08:23:12;;;;;;;112.63;35.38;;;;;;;3.78;100.00;101378.28;5144023;27;20549;-70
2021/12/06 08:25:40;;;;;;;98.13;35.97;;;;;;;3.46;100.00;101377.53;5135157;27;20595;-70
2021/12/06 08:28:06;;;;;;;97.00;34.72;;;;;;;3.80;100.00;101378.06;5105490;27;20031;-70
2021/12/06 08:30:33;;;;;;;111.70;35.58;;;;;;;3.70;100.00;101384.00;5135858;27;20292;-69
2021/12/06 08:33:02;;;;;;;95.45;34.45;;;;;;;3.63;100.00;101370.50;5105811;27;20548;-71
2021/12/06 08:35:28;;;;;;;80.65;33.95;;;;;;;3.60;100.00;101375.53;5136902;27;20018;-71
2021/12/06 08:37:57;;;;;;;85.15;34.40;;;;;;;3.72;100.00;101378.34;5122320;27;20529;-70
2021/12/06 08:40:24;;;;;;;80.22;35.15;;;;;;;3.72;100.00;101381.88;5139433;27;20038;-70
2021/12/06 08:42:50;;;;;;;89.28;34.17;;;;;;;3.75;100.00;101372.47;5118758;27;20031;-71
2021/12/06 08:45:17;;;;;;;90.85;36.75;;;;;;;3.78;100.00;101366.63;5121612;27;20087;-71
2021/12/06 08:47:43;;;;;;;116.28;37.92;;;;;;;3.76;100.00;101364.13;5121143;27;20346;-71
2021/12/06 08:50:12;;;;;;;95.50;35.83;;;;;;;3.71;100.00;101360.44;5105821;27;20027;-71
2021/12/06 08:52:38;;;;;;;101.70;36.65;;;;;;;3.75;100.00;101357.03;5140774;27;20287;-70
2021/12/06 08:55:06;;;;;;;97.68;36.88;;;;;;;3.89;100.00;101355.03;5143059;27;20018;-71
2021/12/06 08:57:32;;;;;;;105.10;36.03;;;;;;;3.92;100.00;101351.88;5133674;27;20496;-72
2021/12/06 08:59:57;;;;;;;119.22;37.47;;;;;;;4.15;100.00;101355.75;5121969;27;20364;-71
2021/12/06 09:02:23;;;;;;;101.60;37.25;;;;;;;4.10;100.00;101352.91;5119728;27;20028;-72
2021/12/06 09:04:49;;;;;;;112.80;38.63;;;;;;;4.13;100.00;101347.03;5104798;27;20023;-71
2021/12/06 09:07:15;;;;;;;102.35;35.92;;;;;;;4.13;100.00;101347.88;5098950;27;20023;-71
2021/12/06 09:09:46;;;;;;;102.28;37.20;;;;;;;4.08;100.00;101350.41;5104584;27;20053;-71
2021/12/06 09:12:19;;;;;;;145.30;40.55;;;;;;;4.02;100.00;101335.88;5117255;27;20038;-71
2021/12/06 09:14:46;;;;;;;144.43;41.63;;;;;;;4.03;100.00;101337.56;5083864;27;20083;-71
2021/12/06 09:17:12;;;;;;;104.68;40.20;;;;;;;4.10;100.00;101342.06;5102738;27;20031;-71
2021/12/06 09:19:38;;;;;;;116.30;42.88;;;;;;;4.27;100.00;101345.00;5101885;27;20441;-71
2021/12/06 09:22:03;;;;;;;137.55;44.05;;;;;;;4.39;100.00;101362.16;5104030;27;20027;-72
2021/12/06 09:24:29;;;;;;;129.77;45.05;;;;;;;4.37;100.00;101370.53;5117353;27;20117;-71
2021/12/06 09:26:55;;;;;;;120.50;44.78;;;;;;;4.35;100.00;101378.09;5099083;27;20034;-69
2021/12/06 09:29:24;;;;;;;111.63;44.33;;;;;;;4.26;100.00;101376.72;5106359;27;20054;-70
2021/12/06 09:31:51;;;;;;;108.13;41.72;;;;;;;4.31;100.00;101376.06;5069393;27;20035;-70
2021/12/06 09:34:17;;;;;;;118.45;46.30;;;;;;;4.36;100.00;101370.75;5125501;27;20107;-70
2021/12/06 09:36:42;;;;;;;96.55;42.88;;;;;;;4.45;100.00;101355.00;5122512;27;20145;-71
2021/12/06 09:39:08;;;;;;;100.32;43.25;;;;;;;4.32;100.00;101351.41;5104471;27;20212;-70
2021/12/06 09:41:34;;;;;;;113.80;44.70;;;;;;;4.48;100.00;101346.41;5115262;27;20250;-70
2021/12/06 09:44:03;;;;;;;106.68;44.55;;;;;;;4.49;100.00;101356.19;5127702;27;20051;-70
2021/12/06 09:46:33;;;;;;;111.40;44.47;;;;;;;4.57;100.00;101350.44;5135088;27;20369;-71
2021/12/06 09:49:01;;;;;;;103.82;43.40;;;;;;;4.42;100.00;101359.00;5125659;27;20026;-70
2021/12/06 09:51:27;;;;;;;97.32;42.65;;;;;;;4.72;100.00;101361.75;5102526;27;20043;-68
2021/12/06 09:53:55;;;;;;;100.38;44.40;;;;;;;4.79;100.00;101362.47;5124652;27;20442;-70
2021/12/06 09:56:28;;;;;;;99.57;42.88;;;;;;;4.78;100.00;101363.53;5119436;27;20113;-70
2021/12/06 09:58:55;;;;;;;87.32;40.25;;;;;;;4.62;100.00;101380.47;5125608;27;20042;-70
2021/12/06 10:01:26;;;;;;;92.25;40.72;;;;;;;4.73;100.00;101368.81;5101614;27;20035;-70
2021/12/06 10:03:55;;;;;;;86.50;39.78;;;;;;;4.84;100.00;101358.22;5124655;27;20472;-70
2021/12/06 10:06:23;;;;;;;82.07;39.67;;;;;;;4.84;100.00;101342.78;5139148;27;20522;-69
2021/12/06 10:08:51;;;;;;;93.35;41.20;;;;;;;4.76;100.00;101343.91;5123692;27;20535;-70
2021/12/06 10:11:19;;;;;;;86.45;39.83;;;;;;;4.53;100.00;101343.84;5102738;27;20052;-70
2021/12/06 10:13:45;;;;;;;83.65;37.90;;;;;;;4.74;100.00;101334.34;5121380;27;20523;-70
2021/12/06 10:16:11;;;;;;;90.70;40.08;;;;;;;4.83;100.00;101330.22;5139416;27;20033;-70
2021/12/06 10:18:38;;;;;;;80.43;39.13;;;;;;;4.89;100.00;101312.19;5123180;27;20019;-70
2021/12/06 10:21:05;;;;;;;87.75;39.70;;;;;;;4.75;100.00;101304.22;5139896;27;20425;-70
2021/12/06 10:23:32;;;;;;;86.25;38.13;;;;;;;4.77;100.00;101299.41;5140975;27;20489;-70
2021/12/06 10:25:57;;;;;;;82.95;40.30;;;;;;;4.91;100.00;101291.03;5136932;27;20054;-70
2021/12/06 10:28:28;;;;;;;80.63;36.63;;;;;;;4.96;100.00;101285.72;5143085;27;20298;-71
2021/12/06 10:30:58;;;;;;;80.32;37.33;;;;;;;4.75;100.00;101284.38;5118235;27;20015;-70
2021/12/06 10:33:27;;;;;;;83.97;38.28;;;;;;;4.84;100.00;101282.16;5143833;27;20027;-70
2021/12/06 10:35:56;;;;;;;76.43;37.08;;;;;;;5.05;100.00;101273.47;5119716;27;20031;-70
2021/12/06 10:38:26;;;;;;;76.45;35.38;;;;;;;4.64;100.00;101258.00;5143445;27;20033;-69
2021/12/06 10:41:08;;;;;;;73.97;34.53;;;;;;;4.55;100.00;101262.97;5120612;27;20034;-69
2021/12/06 10:43:34;;;;;;;73.93;35.78;;;;;;;4.68;100.00;101275.53;5140940;27;20500;-69
2021/12/06 10:46:02;;;;;;;64.55;31.92;;;;;;;4.73;100.00;101262.88;5139042;27;20759;-71
2021/12/06 10:48:31;;;;;;;64.35;31.98;;;;;;;4.60;100.00;101254.94;5122255;27;20019;-70
2021/12/06 10:51:04;;;;;;;65.93;30.98;;;;;;;4.50;100.00;101244.66;5108673;27;20019;-70
2021/12/06 10:53:48;;;;;;;60.30;31.08;;;;;;;4.36;100.00;101244.03;5100772;27;20056;-70
2021/12/06 10:56:20;;;;;;;64.90;32.38;;;;;;;4.48;100.00;101241.34;5112585;27;20084;-68
2021/12/06 10:58:53;;;;;;;64.47;31.25;;;;;;;4.34;100.00;101240.69;5102578;27;20027;-70
2021/12/06 11:01:26;;;;;;;69.97;33.17;;;;;;;4.47;100.00;101245.09;5115141;27;20027;-70
2021/12/06 11:03:54;;;;;;;62.42;32.78;;;;;;;4.65;100.00;101227.09;5144801;27;20030;-69
2021/12/06 11:06:25;;;;;;;73.13;33.72;;;;;;;4.57;100.00;101217.38;5140271;27;20035;-69
2021/12/06 11:08:55;;;;;;;68.80;33.65;;;;;;;4.64;100.00;101211.84;5125669;27;20372;-70
2021/12/06 11:11:43;;;;;;;72.35;35.45;;;;;;;4.72;100.00;101208.78;5140310;27;20074;-69
2021/12/06 11:14:15;;;;;;;72.28;34.42;;;;;;;4.67;100.00;101205.94;5144418;27;20038;-70
2021/12/06 11:16:43;;;;;;;72.27;35.50;;;;;;;4.73;100.00;101194.16;5135768;27;20302;-70
2021/12/06 11:19:15;;;;;;;69.55;34.70;;;;;;;4.70;100.00;101184.56;5126573;27;20027;-70
2021/12/06 11:21:44;;;;;;;77.00;36.60;;;;;;;4.74;100.00;101177.63;5138160;27;20702;-70